Mackinaw City, MI

10:37 PM EDT on March 27, 2015 (GMT -0400)
Harbor Springs | | Change Station
CLOSE
Current Station
Airport
Location: Harbor Springs,
Elevation: 686 ft
Nearby Weather Stations

Elev 686 ft 45.43 °N, 84.91 °W | Updated 22 minutes ago

Clear
Clear
14 °F
Feels Like 14 °F
N
0
Wind Variable Wind from North

Today
High -- | Low -- °F
--% Chance of Precip.
Yesterday
High -- | Low -- °F
Precip. -- in
7:29 AM 8:00 PM
First Quarter, 58% visible
Pressure 30.20 in
Visibility 10.0 miles
Clouds Clear
Dew Point 2 °F
Humidity 58%
Rainfall 0.00 in
Snow Depth Not available.
UV 0 out of 12
Pollen .20 out of 12
Air Quality Not available.
Flu Activity Not available.
METAR KMGN 280215Z AUTO 00000KT 10SM CLR M10/M16 A3020 RMK AO2 T11011169

More Conditions Fewer Conditions

Pressure 30.20 in
Visibility 10.0 miles
Clouds Clear
Dew Point 2 °F
Humidity 58%
Rainfall 0.00 in
Snow Depth Not available.
UV 0 out of 12
Pollen .20 out of 12
Air Quality Not available.
Flu Activity Not available.
METAR KMGN 280215Z AUTO 00000KT 10SM CLR M10/M16 A3020 RMK AO2 T11011169

More Conditions Fewer Conditions

Nowcast | as of 10:00 PM EDT on March 27, 2015

At 11 PM...clear. Temperature 12. Light winds. At 1 am...clear. Temperature 10 above. Light winds. At 3 am...clear. Temperature 8 above. Light winds. At 5 am...clear. Temperature 6 above. Light winds.

×

10-Day Weather Forecast

Almanac

Astronomy

Mar. 27, 2015 Rise Set
Actual Time
Civil Twilight
Nautical Twilight
Astronomical Twilight
Moon
Length of Visible Light
Length of Day
Tomorrow will be .
, % of the Moon is Illuminated

Today's Extremes

State Highs State Lows

Community

WunderPhotos

Upload Photos

1,808,915 photos uploaded!

WunderBlogs® & News

Nearby

Air Quality

  Air Quality AQ Index Pollutant
Not available.

Snow Depth

Station Depth Elevation

Earthquake Activity

City Distance Mag. Time & Date
Minimum magnitude displayed is 2.5.

Coastal Water Temperatures

Place Temperature

Stations

Nearby Weather Stations

Station Location Temp. Windchill Dew Point Humidity Wind Precip. Elev Updated Type